createdAt,value
2023-09-27T00:01:25.766Z,102103.50
2023-09-27T00:03:52.797Z,102105.13
2023-09-27T00:06:19.580Z,102095.13
2023-09-27T00:08:46.461Z,102105.47
2023-09-27T00:11:13.598Z,102108.91
2023-09-27T00:13:40.506Z,102118.91
2023-09-27T00:16:07.456Z,102126.31
2023-09-27T00:18:34.663Z,102130.28
2023-09-27T00:21:01.549Z,102127.94
2023-09-27T00:23:28.391Z,102121.66
2023-09-27T00:25:55.284Z,102133.50
2023-09-27T00:28:22.197Z,102120.13
2023-09-27T00:30:51.664Z,102124.88
2023-09-27T00:33:18.578Z,102120.19
2023-09-27T00:35:49.870Z,102112.59
2023-09-27T00:38:16.714Z,102117.34
2023-09-27T00:40:50.154Z,102118.19
2023-09-27T00:43:30.863Z,102107.97
2023-09-27T00:46:05.232Z,102108.53
2023-09-27T00:48:33.560Z,102099.63
2023-09-27T00:51:01.636Z,102088.31
2023-09-27T00:53:32.658Z,102089.94
2023-09-27T00:55:59.649Z,102092.06
2023-09-27T00:58:26.916Z,102082.63
2023-09-27T01:00:53.852Z,102091.28
2023-09-27T01:03:20.724Z,102088.91
2023-09-27T01:05:48.735Z,102089.50
2023-09-27T01:08:15.740Z,102086.88
2023-09-27T01:10:43.658Z,102097.97
2023-09-27T01:13:10.851Z,102088.00
2023-09-27T01:15:38.111Z,102095.09
2023-09-27T01:18:05.063Z,102088.56
2023-09-27T01:20:36.778Z,102083.84
2023-09-27T01:23:07.418Z,102088.84
2023-09-27T01:25:38.922Z,102073.09
2023-09-27T01:28:08.708Z,102074.94
2023-09-27T01:30:36.626Z,102062.88
2023-09-27T01:33:06.816Z,102070.78
2023-09-27T01:35:35.393Z,102076.03
2023-09-27T01:38:03.580Z,102078.34
2023-09-27T01:40:33.732Z,102080.75
2023-09-27T01:43:02.288Z,102088.13
2023-09-27T01:45:33.320Z,102086.03
2023-09-27T01:48:01.870Z,102082.38
2023-09-27T01:50:31.455Z,102070.88
2023-09-27T01:52:58.661Z,102063.53
2023-09-27T01:55:26.253Z,102064.59
2023-09-27T01:57:54.017Z,102067.75
2023-09-27T02:00:21.641Z,102067.22
2023-09-27T02:02:59.655Z,102067.50
2023-09-27T02:05:28.164Z,102073.00
2023-09-27T02:07:55.844Z,102080.09
2023-09-27T02:10:23.037Z,102088.25
2023-09-27T02:12:50.079Z,102097.16
2023-09-27T02:15:17.861Z,102099.00
2023-09-27T02:17:45.214Z,102100.84
2023-09-27T02:20:15.096Z,102102.94
2023-09-27T02:22:43.117Z,102091.94
2023-09-27T02:25:15.014Z,102093.53
2023-09-27T02:27:43.651Z,102099.06
2023-09-27T02:30:15.208Z,102096.97
2023-09-27T02:32:43.287Z,102102.50
2023-09-27T02:35:11.424Z,102112.47
2023-09-27T02:37:40.273Z,102118.78
2023-09-27T02:40:14.184Z,102110.13
2023-09-27T02:42:45.858Z,102098.34
2023-09-27T02:45:13.797Z,102091.28
2023-09-27T02:47:44.920Z,102086.03
2023-09-27T02:50:13.024Z,102091.53
2023-09-27T02:52:40.706Z,102093.13
2023-09-27T02:55:10.540Z,102096.78
2023-09-27T02:57:38.167Z,102096.28
2023-09-27T03:00:05.922Z,102098.13
2023-09-27T03:02:34.603Z,102108.88
2023-09-27T03:05:04.173Z,102111.00
2023-09-27T03:07:31.026Z,102109.69
2023-09-27T03:09:59.940Z,102118.91
2023-09-27T03:12:26.820Z,102112.06
2023-09-27T03:14:53.817Z,102115.75
2023-09-27T03:17:21.646Z,102108.94
2023-09-27T03:19:49.160Z,102107.91
2023-09-27T03:22:16.192Z,102104.75
2023-09-27T03:24:42.970Z,102111.34
2023-09-27T03:27:10.670Z,102101.38
2023-09-27T03:29:37.451Z,102100.59
2023-09-27T03:32:04.463Z,102096.69
2023-09-27T03:34:32.973Z,102096.41
2023-09-27T03:36:59.868Z,102083.31
2023-09-27T03:39:29.997Z,102087.00
2023-09-27T03:41:57.803Z,102078.06
2023-09-27T03:44:25.394Z,102092.00
2023-09-27T03:46:52.306Z,102099.06
2023-09-27T03:49:19.235Z,102095.13
2023-09-27T03:51:46.000Z,102099.34
2023-09-27T03:54:12.663Z,102109.31
2023-09-27T03:56:39.506Z,102121.66
2023-09-27T03:59:06.400Z,102126.38
2023-09-27T04:01:33.253Z,102133.19
2023-09-27T04:04:00.374Z,102118.25
2023-09-27T04:06:27.262Z,102124.28
2023-09-27T04:08:54.328Z,102113.28
2023-09-27T04:11:21.324Z,102121.41
2023-09-27T04:13:49.743Z,102113.03
2023-09-27T04:16:16.674Z,102124.28
2023-09-27T04:18:44.025Z,102124.84
2023-09-27T04:21:12.290Z,102121.66
2023-09-27T04:23:39.786Z,102113.81
2023-09-27T04:26:07.118Z,102117.75
2023-09-27T04:28:34.578Z,102120.63
2023-09-27T04:31:01.835Z,102130.34
2023-09-27T04:33:28.746Z,102131.66
2023-09-27T04:35:55.603Z,102131.66
2023-09-27T04:38:22.731Z,102120.66
2023-09-27T04:40:49.633Z,102125.38
2023-09-27T04:43:16.832Z,102130.09
2023-09-27T04:45:43.646Z,102125.88
2023-09-27T04:48:10.664Z,102127.47
2023-09-27T04:50:37.570Z,102129.56
2023-09-27T04:53:04.658Z,102132.44
2023-09-27T04:55:31.660Z,102133.22
2023-09-27T04:57:58.441Z,102127.47
2023-09-27T05:00:25.422Z,102102.59
2023-09-27T05:02:53.573Z,102113.84
2023-09-27T05:05:20.706Z,102117.00
2023-09-27T05:07:48.236Z,102102.84
2023-09-27T05:10:15.777Z,102104.69
2023-09-27T05:12:42.803Z,102097.09
2023-09-27T05:15:12.958Z,102099.72
2023-09-27T05:17:39.968Z,102103.88
2023-09-27T05:20:11.368Z,102096.03
2023-09-27T05:22:38.985Z,102098.66
2023-09-27T05:25:07.467Z,102105.47
2023-09-27T05:27:35.407Z,102108.88
2023-09-27T05:30:02.580Z,102120.41
2023-09-27T05:32:29.520Z,102117.00
2023-09-27T05:34:56.552Z,102105.97
2023-09-27T05:37:24.406Z,102111.50
2023-09-27T05:39:51.475Z,102105.22
2023-09-27T05:42:18.345Z,102091.59
2023-09-27T05:44:45.454Z,102087.94
2023-09-27T05:47:12.417Z,102084.00
2023-09-27T05:49:39.487Z,102092.88
2023-09-27T05:52:06.949Z,102087.63
2023-09-27T05:54:34.160Z,102083.97
2023-09-27T05:57:01.384Z,102091.03
2023-09-27T05:59:28.330Z,102106.75
2023-09-27T06:01:56.125Z,102110.41
2023-09-27T06:04:23.335Z,102104.34
2023-09-27T06:06:50.847Z,102108.78
2023-09-27T06:09:18.771Z,102104.31
2023-09-27T06:11:46.696Z,102096.47
2023-09-27T06:14:13.799Z,102095.91
2023-09-27T06:16:41.269Z,102098.00
2023-09-27T06:19:09.920Z,102084.09
2023-09-27T06:21:37.178Z,102085.91
2023-09-27T06:24:05.618Z,102091.91
2023-09-27T06:26:32.698Z,102091.09
2023-09-27T06:29:00.069Z,102096.84
2023-09-27T06:31:27.389Z,102093.97
2023-09-27T06:33:54.463Z,102099.19
2023-09-27T06:36:22.987Z,102099.72
2023-09-27T06:38:51.618Z,102112.03
2023-09-27T06:41:19.104Z,102104.91
2023-09-27T06:43:46.862Z,102107.22
2023-09-27T06:46:15.345Z,102108.78
2023-09-27T06:48:44.799Z,102104.00
2023-09-27T06:51:14.862Z,102104.50
2023-09-27T06:53:43.999Z,102110.00
2023-09-27T06:56:11.131Z,102101.59
2023-09-27T06:58:38.941Z,102096.09
2023-09-27T07:01:06.066Z,102105.50
2023-09-27T07:03:35.578Z,102108.56
2023-09-27T07:06:04.082Z,102101.19
2023-09-27T07:08:31.374Z,102104.81
2023-09-27T07:11:09.648Z,102107.41
2023-09-27T07:13:38.698Z,102107.38
2023-09-27T07:16:29.979Z,102115.19
2023-09-27T07:19:01.202Z,102109.41
2023-09-27T07:21:29.518Z,102112.47
2023-09-27T07:23:56.707Z,102121.34
2023-09-27T07:26:23.753Z,102119.47
2023-09-27T07:28:52.211Z,102120.19
2023-09-27T07:31:19.764Z,102124.59
2023-09-27T07:33:53.966Z,102119.00
2023-09-27T07:36:22.240Z,102122.28
2023-09-27T07:38:49.357Z,102120.56
2023-09-27T07:41:17.177Z,102115.88
2023-09-27T07:43:44.194Z,102124.06
2023-09-27T07:46:13.743Z,102133.63
2023-09-27T07:48:42.870Z,102139.25
2023-09-27T07:51:23.113Z,102139.38
2023-09-27T07:53:50.313Z,102152.72
2023-09-27T07:56:22.774Z,102150.78
2023-09-27T07:58:53.615Z,102161.97
2023-09-27T08:01:25.611Z,102148.91
2023-09-27T08:03:53.863Z,102151.97
2023-09-27T08:06:21.985Z,102161.91
2023-09-27T08:08:49.396Z,102158.38
2023-09-27T08:11:17.434Z,102154.31
2023-09-27T08:13:44.567Z,102149.66
2023-09-27T08:16:11.574Z,102150.84
2023-09-27T08:18:38.911Z,102156.72
2023-09-27T08:21:05.998Z,102156.53
2023-09-27T08:23:33.790Z,102165.34
2023-09-27T08:26:01.045Z,102165.75
2023-09-27T08:28:31.108Z,102166.13
2023-09-27T08:31:00.010Z,102167.78
2023-09-27T08:33:28.713Z,102177.09
2023-09-27T08:35:58.284Z,102177.69
2023-09-27T08:38:27.236Z,102168.09
2023-09-27T08:40:54.405Z,102162.16
2023-09-27T08:43:23.170Z,102161.34
2023-09-27T08:45:52.955Z,102155.56
2023-09-27T08:48:23.819Z,102163.34
2023-09-27T08:50:52.192Z,102166.75
2023-09-27T08:53:19.541Z,102170.22
2023-09-27T08:55:54.424Z,102168.41
2023-09-27T08:58:26.287Z,102164.66
2023-09-27T09:00:54.212Z,102158.81
2023-09-27T09:03:21.402Z,102150.16
2023-09-27T09:05:50.493Z,102144.72
2023-09-27T09:08:23.569Z,102154.88
2023-09-27T09:10:55.174Z,102155.88
2023-09-27T09:13:24.363Z,102148.41
2023-09-27T09:15:52.480Z,102135.19
2023-09-27T09:18:30.600Z,102138.78
2023-09-27T09:21:01.250Z,102126.03
2023-09-27T09:23:36.123Z,102119.31
2023-09-27T09:26:07.048Z,102106.75
2023-09-27T09:28:36.896Z,102099.28
2023-09-27T09:31:04.198Z,102101.16
2023-09-27T09:33:31.594Z,102105.41
2023-09-27T09:35:58.672Z,102109.94
2023-09-27T09:38:27.690Z,102113.69
2023-09-27T09:40:56.341Z,102107.78
2023-09-27T09:43:34.890Z,102103.59
2023-09-27T09:46:05.101Z,102103.16
2023-09-27T09:48:34.861Z,102095.19
2023-09-27T09:51:09.053Z,102103.44
2023-09-27T09:53:40.862Z,102094.09
2023-09-27T09:59:05.218Z,102089.41
2023-09-27T10:01:40.788Z,102092.09
2023-09-27T10:04:08.983Z,102097.06
2023-09-27T10:06:48.752Z,102090.66
2023-09-27T10:09:18.434Z,102088.78
2023-09-27T10:11:47.889Z,102087.50
2023-09-27T10:14:18.070Z,102092.81
2023-09-27T10:16:45.924Z,102084.25
2023-09-27T10:19:14.574Z,102097.00
2023-09-27T10:22:20.518Z,102083.88
2023-09-27T10:24:47.909Z,102093.38
2023-09-27T10:27:14.890Z,102094.59
2023-09-27T10:29:57.399Z,102098.28
2023-09-27T10:32:25.044Z,102090.28
2023-09-27T10:34:53.270Z,102104.09
2023-09-27T10:37:57.756Z,102096.56
2023-09-27T10:40:24.846Z,102098.63
2023-09-27T10:42:52.993Z,102085.44
2023-09-27T10:45:20.141Z,102082.16
2023-09-27T10:47:51.188Z,102060.97
2023-09-27T10:50:28.109Z,102059.03
2023-09-27T10:52:55.146Z,102042.28
2023-09-27T10:55:22.176Z,102043.56
2023-09-27T10:57:49.249Z,102045.06
2023-09-27T11:00:19.163Z,102038.31
2023-09-27T11:02:46.181Z,102027.53
2023-09-27T11:05:13.447Z,102024.66
2023-09-27T11:07:48.050Z,102022.72
2023-09-27T11:10:32.856Z,102017.81
2023-09-27T11:13:11.364Z,102004.72
2023-09-27T11:15:39.228Z,102004.91
2023-09-27T11:18:08.806Z,101995.13
2023-09-27T11:20:36.473Z,101995.81
2023-09-27T11:23:04.466Z,101996.28
2023-09-27T11:25:37.715Z,101992.59
2023-09-27T11:28:05.284Z,101992.91
2023-09-27T11:30:34.597Z,101993.09
2023-09-27T11:33:06.531Z,101987.94
2023-09-27T11:35:33.990Z,101985.41
2023-09-27T11:38:11.158Z,101985.94
2023-09-27T11:40:39.709Z,101979.94
2023-09-27T11:43:06.998Z,101984.50
2023-09-27T11:45:48.989Z,101975.88
2023-09-27T11:48:17.327Z,101968.47
2023-09-27T11:50:44.481Z,101976.13
2023-09-27T11:53:12.342Z,101973.91
2023-09-27T11:55:39.591Z,101963.84
2023-09-27T11:58:06.603Z,101965.38
2023-09-27T12:00:33.691Z,101950.28
2023-09-27T12:03:00.923Z,101935.91
2023-09-27T12:05:28.526Z,101940.22
2023-09-27T12:07:56.606Z,101935.34
2023-09-27T12:10:23.809Z,101929.03
2023-09-27T12:12:50.788Z,101930.22
2023-09-27T12:15:17.792Z,101932.59
2023-09-27T12:17:45.121Z,101922.63
2023-09-27T12:20:26.648Z,101911.25
2023-09-27T12:22:59.380Z,101910.28
2023-09-27T12:25:28.306Z,101913.09
2023-09-27T12:27:55.359Z,101905.06
2023-09-27T12:30:22.379Z,101909.31
2023-09-27T12:32:49.441Z,101900.09
2023-09-27T12:35:16.622Z,101889.69
2023-09-27T12:37:43.508Z,101890.19
2023-09-27T12:40:10.939Z,101893.97
2023-09-27T12:42:37.855Z,101882.53
2023-09-27T12:45:05.370Z,101883.59
2023-09-27T12:47:33.304Z,101874.53
2023-09-27T12:50:08.017Z,101873.47
2023-09-27T12:52:35.881Z,101870.03
2023-09-27T12:55:02.921Z,101872.38
2023-09-27T12:57:29.871Z,101871.28
2023-09-27T12:59:58.047Z,101867.13
2023-09-27T13:02:26.088Z,101870.56
2023-09-27T13:04:53.349Z,101862.78
2023-09-27T13:07:20.479Z,101858.28
2023-09-27T13:09:47.441Z,101851.41
2023-09-27T13:12:15.027Z,101847.53
2023-09-27T13:14:42.130Z,101842.97
2023-09-27T13:17:09.160Z,101838.06
2023-09-27T13:19:36.174Z,101832.28
2023-09-27T13:22:03.076Z,101829.53
2023-09-27T13:24:30.418Z,101817.91
2023-09-27T13:26:57.392Z,101825.06
2023-09-27T13:29:24.463Z,101811.63
2023-09-27T13:31:51.574Z,101809.09
2023-09-27T13:34:18.889Z,101809.38
2023-09-27T13:36:46.287Z,101809.06
2023-09-27T13:39:18.513Z,101806.44
2023-09-27T13:41:47.664Z,101803.81
2023-09-27T13:44:15.611Z,101811.91
2023-09-27T13:46:43.018Z,101812.81
2023-09-27T13:49:10.310Z,101811.53
2023-09-27T13:51:38.222Z,101800.19
2023-09-27T13:54:08.234Z,101802.69
2023-09-27T13:56:36.365Z,101806.03
2023-09-27T14:01:31.810Z,101796.06
2023-09-27T14:04:00.349Z,101800.97
2023-09-27T14:06:27.379Z,101795.66
2023-09-27T14:08:56.052Z,101800.34
2023-09-27T14:11:23.962Z,101799.34
2023-09-27T14:13:51.189Z,101797.34
2023-09-27T14:16:18.456Z,101788.94
2023-09-27T14:18:46.131Z,101793.41
2023-09-27T14:21:14.779Z,101791.59
2023-09-27T14:23:50.421Z,101791.50
2023-09-27T14:26:20.405Z,101786.25
2023-09-27T14:28:47.534Z,101780.69
2023-09-27T14:31:18.020Z,101783.59
2023-09-27T14:33:45.300Z,101771.38
2023-09-27T14:36:13.639Z,101770.28
2023-09-27T14:38:40.686Z,101765.63
2023-09-27T14:41:11.401Z,101762.38
2023-09-27T14:43:39.397Z,101756.19
2023-09-27T14:46:13.407Z,101750.28
2023-09-27T14:48:41.589Z,101747.00
2023-09-27T14:51:13.476Z,101745.31
2023-09-27T14:53:45.814Z,101741.44
2023-09-27T14:56:14.472Z,101744.72
2023-09-27T14:58:41.599Z,101746.53
2023-09-27T15:01:09.235Z,101738.09
2023-09-27T15:03:36.499Z,101739.22
2023-09-27T15:06:04.405Z,101735.69
2023-09-27T15:08:31.700Z,101732.59
2023-09-27T15:10:58.843Z,101732.50
2023-09-27T15:13:26.784Z,101725.88
2023-09-27T15:15:53.782Z,101716.59
2023-09-27T15:18:24.120Z,101725.63
2023-09-27T15:20:52.874Z,101725.44
2023-09-27T15:23:19.786Z,101716.84
2023-09-27T15:25:46.792Z,101710.91
2023-09-27T15:28:13.698Z,101717.69
2023-09-27T15:30:42.110Z,101715.59
2023-09-27T15:33:10.627Z,101715.94
2023-09-27T15:35:39.290Z,101708.97
2023-09-27T15:38:06.753Z,101703.91
2023-09-27T15:40:34.665Z,101705.69
2023-09-27T15:43:01.915Z,101704.84
2023-09-27T15:45:30.763Z,101712.38
2023-09-27T15:47:58.231Z,101706.19
2023-09-27T15:50:25.324Z,101708.31
2023-09-27T15:52:52.465Z,101699.75
2023-09-27T15:55:20.804Z,101700.47
2023-09-27T15:57:47.978Z,101699.59
2023-09-27T16:00:15.674Z,101694.06
2023-09-27T16:02:43.012Z,101690.41
2023-09-27T16:05:12.262Z,101683.69
2023-09-27T16:07:40.884Z,101687.47
2023-09-27T16:10:13.223Z,101688.13
2023-09-27T16:12:43.592Z,101681.19
2023-09-27T16:15:10.974Z,101678.41
2023-09-27T16:17:40.140Z,101679.31
2023-09-27T16:20:08.337Z,101675.78
2023-09-27T16:22:36.109Z,101675.34
2023-09-27T16:25:06.397Z,101672.94
2023-09-27T16:27:33.607Z,101675.78
2023-09-27T16:30:00.693Z,101673.78
2023-09-27T16:32:28.666Z,101666.84
2023-09-27T16:34:55.774Z,101659.41
2023-09-27T16:37:22.762Z,101654.75
2023-09-27T16:39:50.774Z,101647.56
2023-09-27T16:42:17.774Z,101638.81
2023-09-27T16:44:44.713Z,101635.72
2023-09-27T16:47:11.537Z,101632.19
2023-09-27T16:49:38.545Z,101647.34
2023-09-27T16:52:05.554Z,101648.34
2023-09-27T16:54:32.525Z,101655.75
2023-09-27T16:57:00.597Z,101646.91
2023-09-27T16:59:27.903Z,101646.34
2023-09-27T17:01:54.954Z,101636.19
2023-09-27T17:04:22.122Z,101640.47
2023-09-27T17:06:49.992Z,101644.00
2023-09-27T17:09:17.268Z,101632.84
2023-09-27T17:11:44.237Z,101622.00
2023-09-27T17:14:11.240Z,101617.59
2023-09-27T17:16:38.574Z,101624.97
2023-09-27T17:19:06.257Z,101628.09
2023-09-27T17:21:34.773Z,101628.66
2023-09-27T17:24:01.717Z,101613.72
2023-09-27T17:26:29.901Z,101627.19
2023-09-27T17:28:56.989Z,101625.66
2023-09-27T17:31:24.335Z,101624.44
2023-09-27T17:33:52.343Z,101613.25
2023-09-27T17:36:19.732Z,101621.06
2023-09-27T17:38:46.714Z,101620.94
2023-09-27T17:41:13.845Z,101618.97
2023-09-27T17:43:40.949Z,101618.81
2023-09-27T17:46:40.909Z,101617.94
2023-09-27T17:49:07.926Z,101620.00
2023-09-27T17:51:34.739Z,101620.63
2023-09-27T17:54:01.718Z,101606.81
2023-09-27T17:56:29.414Z,101597.19
2023-09-27T17:58:57.170Z,101597.41
2023-09-27T18:01:27.292Z,101582.50
2023-09-27T18:03:54.735Z,101576.16
2023-09-27T18:06:22.809Z,101581.44
2023-09-27T18:08:49.760Z,101579.44
2023-09-27T18:11:17.550Z,101578.53
2023-09-27T18:13:45.104Z,101572.31
2023-09-27T18:16:16.702Z,101571.41
2023-09-27T18:18:45.133Z,101564.13
2023-09-27T18:21:13.854Z,101556.34
2023-09-27T18:23:42.567Z,101553.88
2023-09-27T18:26:10.159Z,101551.00
2023-09-27T18:28:37.453Z,101545.88
2023-09-27T18:31:04.384Z,101547.63
2023-09-27T18:33:31.483Z,101554.34
2023-09-27T18:35:58.434Z,101558.84
2023-09-27T18:38:25.397Z,101566.03
2023-09-27T18:40:52.311Z,101581.56
2023-09-27T18:43:19.678Z,101576.72
2023-09-27T18:45:47.765Z,101581.56
2023-09-27T18:48:19.646Z,101573.81
2023-09-27T18:50:48.627Z,101572.25
2023-09-27T18:53:15.904Z,101577.09
2023-09-27T18:55:43.064Z,101565.59
2023-09-27T18:58:15.022Z,101567.78
2023-09-27T19:00:43.468Z,101555.22
2023-09-27T19:03:11.022Z,101557.41
2023-09-27T19:05:38.167Z,101555.84
2023-09-27T19:08:05.521Z,101562.25
2023-09-27T19:10:33.671Z,101556.50
2023-09-27T19:13:00.679Z,101551.50
2023-09-27T19:15:27.722Z,101543.91
2023-09-27T19:17:58.584Z,101542.97
2023-09-27T19:20:26.699Z,101538.78
2023-09-27T19:22:54.421Z,101537.25
2023-09-27T19:25:22.149Z,101539.13
2023-09-27T19:27:50.126Z,101537.25
2023-09-27T19:30:17.670Z,101537.84
2023-09-27T19:32:47.574Z,101538.19
2023-09-27T19:35:15.958Z,101535.88
2023-09-27T19:37:43.984Z,101532.00
2023-09-27T19:40:11.630Z,101528.56
2023-09-27T19:42:39.002Z,101521.72
2023-09-27T19:45:06.844Z,101521.28
2023-09-27T19:47:36.281Z,101517.88
2023-09-27T19:50:04.577Z,101509.94
2023-09-27T19:52:31.912Z,101496.56
2023-09-27T19:54:59.365Z,101498.00
2023-09-27T19:57:26.375Z,101491.13
2023-09-27T19:59:53.624Z,101487.25
2023-09-27T20:02:20.972Z,101485.69
2023-09-27T20:04:48.225Z,101489.91
2023-09-27T20:07:15.522Z,101488.63
2023-09-27T20:09:43.150Z,101490.50
2023-09-27T20:12:10.226Z,101477.94
2023-09-27T20:14:37.317Z,101475.91
2023-09-27T20:17:04.492Z,101481.50
2023-09-27T20:19:31.835Z,101468.19
2023-09-27T20:21:58.864Z,101459.66
2023-09-27T20:24:26.913Z,101452.03
2023-09-27T20:26:54.113Z,101459.97
2023-09-27T20:29:21.710Z,101449.69
2023-09-27T20:31:49.911Z,101448.47
2023-09-27T20:34:17.064Z,101431.06
2023-09-27T20:36:44.102Z,101416.63
2023-09-27T20:39:11.161Z,101418.03
2023-09-27T20:41:38.373Z,101417.72
2023-09-27T20:44:06.948Z,101423.47
2023-09-27T20:46:34.205Z,101422.34
2023-09-27T20:49:02.721Z,101420.97
2023-09-27T20:51:29.726Z,101419.09
2023-09-27T20:53:57.080Z,101408.22
2023-09-27T20:56:24.336Z,101387.53
2023-09-27T20:58:51.519Z,101390.63
2023-09-27T21:01:26.040Z,101362.78
2023-09-27T21:03:53.514Z,101383.59
2023-09-27T21:06:31.171Z,101371.59
2023-09-27T21:09:04.305Z,101380.31
2023-09-27T21:11:31.854Z,101401.13
2023-09-27T21:14:00.571Z,101406.13
2023-09-27T21:16:29.453Z,101406.13
2023-09-27T21:18:57.367Z,101413.59
2023-09-27T21:21:25.194Z,101406.88
2023-09-27T21:23:53.543Z,101409.22
2023-09-27T21:26:21.739Z,101402.03
2023-09-27T21:28:48.954Z,101416.78
2023-09-27T21:31:16.541Z,101405.91
2023-09-27T21:33:44.512Z,101399.84
2023-09-27T21:36:12.009Z,101389.28
2023-09-27T21:38:40.166Z,101381.06
2023-09-27T21:41:07.389Z,101376.84
2023-09-27T21:43:34.834Z,101377.59
2023-09-27T21:46:02.136Z,101370.94
2023-09-27T21:48:30.494Z,101375.91
2023-09-27T21:50:57.411Z,101368.00
2023-09-27T21:53:24.520Z,101365.66
2023-09-27T21:55:51.568Z,101343.41
2023-09-27T21:58:18.576Z,101339.22
2023-09-27T22:00:45.456Z,101316.50
2023-09-27T22:03:14.615Z,101324.91
2023-09-27T22:05:42.196Z,101333.63
2023-09-27T22:08:17.980Z,101340.44
2023-09-27T22:10:46.022Z,101346.19
2023-09-27T22:13:23.214Z,101366.25
2023-09-27T22:15:56.004Z,101399.19
2023-09-27T22:18:24.067Z,101410.69
2023-09-27T22:20:51.714Z,101414.22
2023-09-27T22:23:32.669Z,101407.38
2023-09-27T22:26:01.146Z,101410.03
2023-09-27T22:28:32.233Z,101400.88
2023-09-27T22:31:02.339Z,101397.00
2023-09-27T22:33:31.336Z,101392.34
2023-09-27T22:35:58.453Z,101383.97
2023-09-27T22:38:25.420Z,101384.63
2023-09-27T22:40:52.649Z,101390.53
2023-09-27T22:43:21.330Z,101382.88
2023-09-27T22:45:50.916Z,101372.31
2023-09-27T22:48:19.450Z,101379.03
2023-09-27T22:50:51.213Z,101375.31
2023-09-27T22:53:19.764Z,101371.09
2023-09-27T22:55:51.739Z,101376.69
2023-09-27T22:58:19.582Z,101368.44
2023-09-27T23:00:51.216Z,101365.34
2023-09-27T23:03:18.526Z,101349.03
2023-09-27T23:05:46.718Z,101364.75
2023-09-27T23:08:13.985Z,101364.31
2023-09-27T23:10:41.844Z,101353.72
2023-09-27T23:13:29.980Z,101347.69
2023-09-27T23:15:57.876Z,101349.56
2023-09-27T23:18:30.393Z,101356.72
2023-09-27T23:20:58.888Z,101366.19
2023-09-27T23:23:37.480Z,101372.22
2023-09-27T23:26:11.358Z,101376.44
2023-09-27T23:28:38.417Z,101373.47
2023-09-27T23:31:10.151Z,101370.03
2023-09-27T23:33:51.331Z,101367.75
2023-09-27T23:36:27.460Z,101381.28
2023-09-27T23:38:57.692Z,101371.00
2023-09-27T23:41:31.721Z,101374.44
2023-09-27T23:44:06.307Z,101371.78
2023-09-27T23:46:38.662Z,101363.84
2023-09-27T23:49:06.458Z,101381.44
2023-09-27T23:51:34.417Z,101377.59
2023-09-27T23:54:04.009Z,101382.88
2023-09-27T23:56:31.462Z,101393.44
2023-09-27T23:59:21.042Z,101395.63
